Time;durP1;ratioP1;P1;durP2;ratioP2;P2;SDS_P1;SDS_P2;PMS_P1;PMS_P2;Temp;Humidity;BMP_temperature;BMP_pressure;BME280_temperature;BME280_humidity;BME280_pressure;Samples;Min_cycle;Max_cycle;Signal;HPM_P1;HPM_P2
2024/01/05 00:02:13;;;;;;;5.53;3.47;;;7.60;99.90;;;;;;5055295;28;20666;-73
2024/01/05 00:04:38;;;;;;;12.80;3.17;;;7.60;99.90;;;;;;5054340;28;20187;-74
2024/01/05 00:07:04;;;;;;;14.40;3.50;;;7.60;99.90;;;;;;5055167;28;20638;-74
2024/01/05 00:09:30;;;;;;;12.03;3.47;;;7.60;99.90;;;;;;5056447;28;20593;-75
2024/01/05 00:11:56;;;;;;;8.17;3.37;;;7.70;99.90;;;;;;5056305;28;20171;-75
2024/01/05 00:14:22;;;;;;;8.33;2.70;;;7.80;99.90;;;;;;5055907;28;20421;-75
2024/01/05 00:16:47;;;;;;;9.20;3.17;;;7.80;99.90;;;;;;5056953;28;20484;-75
2024/01/05 00:19:13;;;;;;;7.73;3.20;;;7.80;99.90;;;;;;5054992;28;20262;-75
2024/01/05 00:21:38;;;;;;;7.63;2.53;;;7.70;99.90;;;;;;5056342;28;20170;-74
2024/01/05 00:24:04;;;;;;;16.33;3.53;;;7.70;99.90;;;;;;5055941;28;20191;-75
2024/01/05 00:26:30;;;;;;;19.90;3.03;;;7.70;99.90;;;;;;5055064;28;20175;-75
2024/01/05 00:28:55;;;;;;;12.00;3.90;;;7.70;99.90;;;;;;5055247;28;20198;-75
2024/01/05 00:31:21;;;;;;;6.47;3.17;;;7.70;99.90;;;;;;5056138;28;20181;-75
2024/01/05 00:33:46;;;;;;;14.53;3.80;;;7.70;99.90;;;;;;5055275;28;20201;-75
2024/01/05 00:36:12;;;;;;;15.23;3.40;;;7.70;99.90;;;;;;5055275;28;20167;-75
2024/01/05 00:38:38;;;;;;;14.43;2.80;;;7.60;99.90;;;;;;5056454;28;20665;-74
2024/01/05 00:41:05;;;;;;;6.20;2.60;;;7.50;99.90;;;;;;5055340;28;20199;-76
2024/01/05 00:43:33;;;;;;;7.73;2.53;;;7.50;99.90;;;;;;5058018;28;20421;-76
2024/01/05 00:45:59;;;;;;;5.13;2.10;;;7.50;99.90;;;;;;5058035;28;20496;-75
2024/01/05 00:48:26;;;;;;;5.57;2.97;;;7.50;99.90;;;;;;5041065;28;20556;-76
2024/01/05 00:50:53;;;;;;;3.30;2.10;;;7.40;99.90;;;;;;5058011;28;20182;-76
2024/01/05 00:53:19;;;;;;;9.43;2.10;;;7.30;99.90;;;;;;5058636;28;20449;-75
2024/01/05 00:55:44;;;;;;;13.37;2.77;;;7.30;99.90;;;;;;5058743;28;20417;-75
2024/01/05 00:58:11;;;;;;;7.80;2.87;;;7.30;99.90;;;;;;5058497;28;20175;-76
2024/01/05 01:00:37;;;;;;;5.60;2.50;;;7.30;99.90;;;;;;5056118;28;20564;-75
2024/01/05 01:03:03;;;;;;;3.43;2.40;;;7.20;99.90;;;;;;5057068;28;20469;-76
2024/01/05 01:05:28;;;;;;;7.73;2.37;;;7.20;99.90;;;;;;5056444;28;20203;-76
2024/01/05 01:07:55;;;;;;;3.80;2.20;;;7.20;99.90;;;;;;5038598;28;20424;-76
2024/01/05 01:10:20;;;;;;;6.67;2.57;;;7.10;99.90;;;;;;5056487;28;20784;-76
2024/01/05 01:12:47;;;;;;;6.70;3.23;;;7.10;99.90;;;;;;5039373;28;20445;-76
2024/01/05 01:15:16;;;;;;;5.07;2.00;;;7.20;99.90;;;;;;5057459;28;20170;-76
2024/01/05 01:17:41;;;;;;;8.60;2.30;;;7.10;99.90;;;;;;5036401;28;20421;-74
2024/01/05 01:20:08;;;;;;;14.70;4.90;;;7.10;99.90;;;;;;5053710;28;20452;-74
2024/01/05 01:22:34;;;;;;;5.10;2.30;;;7.10;99.90;;;;;;5052249;28;20163;-74
2024/01/05 01:24:59;;;;;;;10.20;2.40;;;7.10;99.90;;;;;;5053660;28;20412;-74
2024/01/05 01:27:25;;;;;;;9.07;2.23;;;7.10;99.90;;;;;;5053677;28;20159;-73
2024/01/05 01:29:50;;;;;;;8.27;2.53;;;7.20;99.90;;;;;;5053665;28;20820;-74
2024/01/05 01:32:16;;;;;;;10.63;2.93;;;7.20;99.90;;;;;;5052193;28;20536;-74
2024/01/05 01:34:41;;;;;;;1.93;1.73;;;7.20;99.90;;;;;;5053200;28;20674;-74
2024/01/05 01:37:07;;;;;;;14.07;2.60;;;7.10;99.90;;;;;;5051920;28;20179;-74
2024/01/05 01:39:32;;;;;;;5.00;1.80;;;7.10;99.90;;;;;;5052136;28;20197;-74
2024/01/05 01:42:00;;;;;;;9.33;2.97;;;7.10;99.90;;;;;;5057147;28;20174;-76
2024/01/05 01:44:33;;;;;;;4.70;1.87;;;7.10;99.90;;;;;;5056438;28;20256;-76
2024/01/05 01:47:00;;;;;;;8.10;1.93;;;7.10;99.90;;;;;;5055789;28;20405;-76
2024/01/05 01:49:26;;;;;;;13.90;2.47;;;7.10;99.90;;;;;;5057257;28;20409;-75
2024/01/05 01:51:55;;;;;;;6.60;2.00;;;7.00;99.90;;;;;;5056881;28;20939;-76
2024/01/05 01:54:23;;;;;;;4.03;2.30;;;6.90;99.90;;;;;;5056742;28;20430;-76
2024/01/05 01:56:50;;;;;;;7.90;2.53;;;6.90;99.90;;;;;;5055061;28;20418;-76
2024/01/05 01:59:17;;;;;;;6.20;2.80;;;6.90;99.90;;;;;;5057599;28;20409;-76
2024/01/05 02:01:44;;;;;;;8.20;2.77;;;6.90;99.90;;;;;;5056073;28;20463;-76
2024/01/05 02:04:15;;;;;;;7.93;2.30;;;6.80;99.90;;;;;;5039031;28;20437;-76
2024/01/05 02:06:45;;;;;;;5.83;2.20;;;6.90;99.90;;;;;;5055231;28;20402;-77
2024/01/05 02:09:14;;;;;;;5.30;2.43;;;6.80;99.90;;;;;;5056435;28;20417;-76
2024/01/05 02:11:40;;;;;;;11.33;2.77;;;6.80;99.90;;;;;;5056670;28;20823;-75
2024/01/05 02:14:06;;;;;;;11.53;3.10;;;6.80;99.90;;;;;;5037235;28;20441;-74
2024/01/05 02:16:32;;;;;;;10.77;2.63;;;6.80;99.90;;;;;;5055783;28;20406;-76
2024/01/05 02:18:57;;;;;;;5.03;2.40;;;6.80;99.90;;;;;;5053776;28;20414;-76
2024/01/05 02:21:32;;;;;;;7.77;2.27;;;6.80;99.90;;;;;;5054820;28;20194;-76
2024/01/05 02:23:58;;;;;;;4.07;1.70;;;6.80;99.90;;;;;;5053125;28;20247;-75
2024/01/05 02:26:24;;;;;;;8.73;3.00;;;6.80;99.90;;;;;;5054834;28;20499;-74
2024/01/05 02:28:50;;;;;;;2.67;1.50;;;6.80;99.90;;;;;;5053886;28;20406;-76
2024/01/05 02:31:15;;;;;;;7.10;3.10;;;6.80;99.90;;;;;;5055049;28;20658;-75
2024/01/05 02:33:41;;;;;;;14.60;2.67;;;6.80;99.90;;;;;;5055249;28;20232;-75
2024/01/05 02:36:06;;;;;;;6.40;2.30;;;6.80;99.90;;;;;;5053984;28;20658;-76
2024/01/05 02:38:32;;;;;;;5.30;2.13;;;6.80;99.90;;;;;;5055435;28;20171;-75
2024/01/05 02:41:00;;;;;;;4.43;1.63;;;6.80;99.90;;;;;;5055162;28;20198;-75
2024/01/05 02:43:25;;;;;;;4.57;1.57;;;6.90;99.90;;;;;;5055178;28;20232;-75
2024/01/05 02:45:51;;;;;;;8.73;2.40;;;6.90;99.90;;;;;;5054246;28;20401;-75
2024/01/05 02:48:16;;;;;;;7.07;2.30;;;6.90;99.90;;;;;;5055258;28;20171;-75
2024/01/05 02:50:42;;;;;;;6.00;2.00;;;6.90;99.90;;;;;;5055628;28;20258;-75
2024/01/05 02:53:07;;;;;;;4.83;1.40;;;6.90;99.90;;;;;;5053969;28;20280;-75
2024/01/05 02:55:33;;;;;;;7.37;2.17;;;6.90;99.90;;;;;;5055095;28;20171;-76
2024/01/05 02:58:02;;;;;;;6.17;2.13;;;6.90;99.90;;;;;;5055112;28;20171;-76
2024/01/05 03:00:27;;;;;;;4.57;1.80;;;6.90;99.90;;;;;;5055497;28;20256;-75
2024/01/05 03:02:53;;;;;;;8.53;1.90;;;6.90;99.90;;;;;;5055245;28;20433;-76
2024/01/05 03:05:18;;;;;;;11.43;1.83;;;6.80;99.90;;;;;;5054840;28;20197;-76
2024/01/05 03:07:46;;;;;;;8.57;2.30;;;6.80;99.90;;;;;;5055488;28;20171;-76
2024/01/05 03:10:11;;;;;;;6.03;1.90;;;6.80;99.90;;;;;;5054490;28;20261;-75
2024/01/05 03:12:37;;;;;;;9.33;2.30;;;6.90;99.90;;;;;;5054370;28;20441;-75
2024/01/05 03:15:03;;;;;;;4.47;1.93;;;6.90;99.90;;;;;;5054762;28;20167;-75
2024/01/05 03:17:28;;;;;;;3.40;2.40;;;7.00;99.90;;;;;;5055057;28;20205;-76
2024/01/05 03:19:54;;;;;;;7.23;3.03;;;6.90;99.90;;;;;;5055230;28;20453;-76
2024/01/05 03:22:19;;;;;;;5.23;2.20;;;6.90;99.90;;;;;;5054685;28;20229;-76
2024/01/05 03:24:45;;;;;;;6.00;2.40;;;7.00;99.90;;;;;;5054222;28;20198;-75
2024/01/05 03:27:13;;;;;;;4.93;1.90;;;7.00;99.90;;;;;;5053464;28;20175;-76
2024/01/05 03:29:39;;;;;;;3.77;2.47;;;7.00;99.90;;;;;;5054856;28;20715;-76
2024/01/05 03:32:05;;;;;;;3.53;1.57;;;7.00;99.90;;;;;;5059307;28;20401;-76
2024/01/05 03:34:30;;;;;;;4.93;2.40;;;7.00;99.90;;;;;;5059076;28;20433;-76
2024/01/05 03:36:56;;;;;;;3.00;1.70;;;7.00;99.90;;;;;;5059712;28;20166;-76
2024/01/05 03:39:22;;;;;;;9.17;2.20;;;7.00;99.90;;;;;;5056044;28;20183;-74
2024/01/05 03:41:47;;;;;;;7.17;1.80;;;6.90;99.90;;;;;;5054353;28;20190;-75
2024/01/05 03:44:20;;;;;;;7.33;2.03;;;6.90;99.90;;;;;;5055260;28;20210;-75
2024/01/05 03:46:52;;;;;;;7.20;2.13;;;6.90;99.90;;;;;;5055546;28;20159;-75
2024/01/05 03:49:17;;;;;;;8.80;2.43;;;7.00;99.90;;;;;;5055446;28;20796;-74
2024/01/05 03:51:43;;;;;;;7.10;1.80;;;6.90;99.90;;;;;;5054178;28;20405;-74
2024/01/05 03:54:09;;;;;;;4.70;2.07;;;6.80;99.90;;;;;;5055106;28;20190;-75
2024/01/05 03:56:47;;;;;;;3.83;1.87;;;6.90;99.90;;;;;;5055383;28;20171;-75
2024/01/05 03:59:14;;;;;;;7.70;2.30;;;6.70;99.90;;;;;;5055346;28;20203;-74
2024/01/05 04:01:46;;;;;;;4.83;1.87;;;6.70;99.90;;;;;;5055190;28;20445;-75
2024/01/05 04:04:13;;;;;;;2.43;1.90;;;6.70;99.90;;;;;;5053577;28;20429;-75
2024/01/05 04:06:38;;;;;;;8.10;1.90;;;6.70;99.90;;;;;;5053952;28;20781;-75
2024/01/05 04:09:04;;;;;;;10.40;2.47;;;6.70;99.90;;;;;;5053857;28;20402;-75
2024/01/05 04:11:30;;;;;;;4.50;2.03;;;6.60;99.90;;;;;;5055125;28;20181;-75
2024/01/05 04:13:57;;;;;;;4.60;1.87;;;6.70;99.90;;;;;;5053590;28;20478;-75
2024/01/05 04:16:22;;;;;;;10.93;2.80;;;6.70;99.90;;;;;;5054917;28;20488;-75
2024/01/05 04:18:48;;;;;;;8.10;1.70;;;6.80;99.90;;;;;;5055014;28;20485;-75
2024/01/05 04:21:14;;;;;;;5.73;2.40;;;7.00;99.90;;;;;;5053653;28;20217;-75
2024/01/05 04:23:41;;;;;;;20.33;3.23;;;7.00;99.90;;;;;;5054736;28;20191;-75
2024/01/05 04:26:06;;;;;;;6.77;1.97;;;7.20;99.90;;;;;;5055588;28;20658;-76
2024/01/05 04:28:33;;;;;;;9.20;2.00;;;7.30;99.90;;;;;;5057484;28;20443;-78
2024/01/05 04:30:58;;;;;;;6.50;1.73;;;7.40;99.90;;;;;;5057357;28;20175;-74
2024/01/05 04:33:24;;;;;;;4.93;2.30;;;7.60;99.90;;;;;;5054525;28;20424;-74
2024/01/05 04:35:49;;;;;;;5.20;2.10;;;7.70;99.90;;;;;;5057030;28;20171;-77
2024/01/05 04:38:15;;;;;;;7.30;1.90;;;7.80;99.90;;;;;;5057615;28;20662;-76
2024/01/05 04:40:40;;;;;;;6.43;2.10;;;8.00;99.90;;;;;;5057056;28;20205;-77
2024/01/05 04:43:06;;;;;;;7.40;1.57;;;8.10;99.90;;;;;;5055992;28;20202;-78
2024/01/05 04:45:31;;;;;;;9.37;2.00;;;8.10;99.90;;;;;;5057163;28;20196;-77
2024/01/05 04:47:57;;;;;;;3.10;2.00;;;8.20;99.90;;;;;;5056263;28;20262;-77
2024/01/05 04:50:22;;;;;;;4.10;1.50;;;8.20;99.90;;;;;;5057242;28;20163;-76
2024/01/05 04:52:48;;;;;;;5.23;2.20;;;8.20;99.90;;;;;;5054788;28;20215;-75
2024/01/05 04:55:16;;;;;;;4.60;2.00;;;8.30;99.90;;;;;;5053033;28;20170;-75
2024/01/05 04:57:42;;;;;;;4.63;2.13;;;8.30;99.90;;;;;;5054271;28;20174;-74
2024/01/05 05:00:11;;;;;;;2.13;1.37;;;8.30;99.90;;;;;;5054534;28;20963;-77
2024/01/05 05:02:36;;;;;;;4.90;1.63;;;8.20;99.90;;;;;;5056602;28;20253;-77
2024/01/05 05:05:02;;;;;;;1.77;1.67;;;8.20;99.90;;;;;;5055389;28;20409;-77
2024/01/05 05:07:27;;;;;;;4.87;1.70;;;8.20;99.90;;;;;;5057140;28;20167;-78
2024/01/05 05:09:53;;;;;;;5.77;2.03;;;8.30;99.90;;;;;;5036365;28;20278;-76
2024/01/05 05:12:18;;;;;;;4.03;1.60;;;8.30;99.90;;;;;;5055506;28;20206;-77
2024/01/05 05:14:44;;;;;;;7.10;1.97;;;8.40;99.90;;;;;;5056141;28;20203;-76
2024/01/05 05:17:10;;;;;;;5.80;1.57;;;8.50;99.90;;;;;;5056762;28;20175;-77
2024/01/05 05:19:36;;;;;;;8.30;1.67;;;8.60;99.90;;;;;;5055439;28;20240;-77
2024/01/05 05:22:02;;;;;;;4.10;1.00;;;8.60;99.90;;;;;;5056527;28;20397;-77
2024/01/05 05:24:27;;;;;;;8.87;2.10;;;8.60;99.90;;;;;;5054441;28;20182;-76
2024/01/05 05:26:53;;;;;;;11.97;2.07;;;8.70;99.90;;;;;;5055960;28;20163;-77
2024/01/05 05:29:18;;;;;;;3.67;1.40;;;8.80;99.90;;;;;;5055755;28;20249;-77
2024/01/05 05:31:44;;;;;;;3.50;2.00;;;8.80;99.90;;;;;;5056583;28;20162;-77
2024/01/05 05:34:09;;;;;;;2.30;1.60;;;8.80;99.90;;;;;;5055871;28;20201;-77
2024/01/05 05:36:35;;;;;;;5.93;1.67;;;8.80;99.90;;;;;;5054196;28;20171;-76
2024/01/05 05:39:01;;;;;;;3.20;1.67;;;8.80;99.90;;;;;;5053482;28;20285;-76
2024/01/05 05:41:26;;;;;;;5.07;1.70;;;8.90;99.90;;;;;;5053321;28;20788;-75
2024/01/05 05:43:52;;;;;;;6.93;2.00;;;9.00;99.90;;;;;;5053124;28;20206;-76
2024/01/05 05:46:18;;;;;;;1.80;1.50;;;9.00;99.90;;;;;;5054672;28;20170;-76
2024/01/05 05:48:44;;;;;;;6.83;1.10;;;9.00;99.90;;;;;;5053029;28;20167;-76
2024/01/05 05:51:11;;;;;;;3.50;1.40;;;9.00;99.90;;;;;;5053242;28;20414;-75
2024/01/05 05:53:36;;;;;;;1.47;1.03;;;8.90;99.90;;;;;;5052695;28;20685;-75
2024/01/05 05:56:02;;;;;;;1.40;1.00;;;8.80;99.90;;;;;;5053106;28;20411;-76
2024/01/05 05:58:27;;;;;;;4.67;1.17;;;8.80;99.90;;;;;;5051769;28;20171;-76
2024/01/05 06:00:53;;;;;;;3.27;1.37;;;8.70;99.90;;;;;;5053014;28;20279;-76
2024/01/05 06:03:18;;;;;;;1.20;1.10;;;8.70;99.90;;;;;;5051492;28;20698;-76
2024/01/05 06:05:44;;;;;;;2.43;1.30;;;8.60;99.90;;;;;;5054404;28;20198;-78
2024/01/05 06:08:10;;;;;;;2.73;1.70;;;8.60;99.90;;;;;;5055805;28;20660;-79
2024/01/05 06:10:35;;;;;;;3.00;1.20;;;8.50;99.90;;;;;;5055443;28;20179;-79
2024/01/05 06:13:02;;;;;;;3.27;1.40;;;8.40;99.90;;;;;;5053705;28;20202;-77
2024/01/05 06:15:28;;;;;;;3.90;1.93;;;8.40;99.90;;;;;;5054494;28;20686;-77
2024/01/05 06:17:53;;;;;;;4.63;1.43;;;8.40;99.90;;;;;;5055198;28;20424;-75
2024/01/05 06:20:19;;;;;;;4.43;0.80;;;8.30;99.90;;;;;;5052827;28;20334;-76
2024/01/05 06:22:44;;;;;;;2.80;1.00;;;8.40;99.90;;;;;;5053281;28;20186;-75
2024/01/05 06:25:13;;;;;;;1.30;0.93;;;8.40;99.90;;;;;;5052126;28;20661;-76
2024/01/05 06:27:38;;;;;;;4.63;1.23;;;8.40;99.90;;;;;;5051738;28;20170;-75
2024/01/05 06:30:04;;;;;;;2.57;0.97;;;8.40;99.90;;;;;;5052570;28;20490;-75
2024/01/05 06:32:30;;;;;;;2.23;0.93;;;8.40;99.90;;;;;;5052243;28;20175;-75
2024/01/05 06:34:55;;;;;;;1.60;1.23;;;8.40;99.90;;;;;;5052544;28;20405;-75
2024/01/05 06:37:21;;;;;;;0.80;0.60;;;8.50;99.90;;;;;;5053007;28;20181;-77
2024/01/05 06:39:46;;;;;;;1.93;1.00;;;8.50;99.90;;;;;;5051427;28;20672;-76
2024/01/05 06:42:12;;;;;;;3.30;1.10;;;8.50;99.90;;;;;;5051056;28;20178;-75
2024/01/05 06:44:37;;;;;;;4.43;1.20;;;8.50;99.90;;;;;;5050622;28;20238;-76
2024/01/05 06:47:03;;;;;;;3.10;1.00;;;8.60;99.90;;;;;;5052305;28;20515;-76
2024/01/05 06:49:28;;;;;;;2.20;1.00;;;8.60;99.90;;;;;;5050950;28;20175;-76
2024/01/05 06:51:54;;;;;;;1.53;1.10;;;8.70;99.90;;;;;;5052148;28;20182;-75
2024/01/05 06:54:19;;;;;;;3.13;1.10;;;8.70;99.90;;;;;;5051860;28;20190;-74
2024/01/05 06:56:45;;;;;;;1.00;0.70;;;8.70;99.90;;;;;;5052133;28;20545;-75
2024/01/05 06:59:11;;;;;;;2.10;1.47;;;8.80;99.90;;;;;;5052179;28;20170;-77
2024/01/05 07:01:36;;;;;;;4.37;2.60;;;8.90;99.90;;;;;;5050801;28;20366;-77
2024/01/05 07:04:02;;;;;;;3.63;1.00;;;8.80;99.90;;;;;;5051611;28;20275;-76
2024/01/05 07:06:27;;;;;;;4.77;1.27;;;8.80;99.90;;;;;;5050393;28;20646;-76
2024/01/05 07:08:53;;;;;;;1.73;0.80;;;8.80;99.90;;;;;;5052046;28;20230;-75
2024/01/05 07:11:21;;;;;;;2.93;0.90;;;8.80;99.90;;;;;;5050805;28;20175;-77
2024/01/05 07:13:46;;;;;;;4.57;1.43;;;8.90;99.90;;;;;;5051847;28;20422;-77
2024/01/05 07:16:19;;;;;;;1.30;0.80;;;8.90;99.90;;;;;;5051884;28;20451;-77
2024/01/05 07:18:46;;;;;;;3.80;1.27;;;8.90;99.90;;;;;;5051987;28;20293;-77
2024/01/05 07:21:12;;;;;;;1.40;1.30;;;8.80;99.90;;;;;;5051928;28;20453;-76
2024/01/05 07:23:37;;;;;;;2.73;1.33;;;8.80;99.90;;;;;;5051701;28;20793;-78
2024/01/05 07:26:03;;;;;;;1.50;1.17;;;8.80;99.90;;;;;;5052021;28;20409;-74
2024/01/05 07:28:29;;;;;;;2.60;1.00;;;8.70;99.90;;;;;;5053173;28;20170;-77
2024/01/05 07:30:54;;;;;;;3.93;1.20;;;8.80;99.90;;;;;;5050806;28;20258;-75
2024/01/05 07:33:20;;;;;;;1.40;1.20;;;8.80;99.90;;;;;;5051477;28;20201;-76
2024/01/05 07:35:45;;;;;;;1.20;0.80;;;8.80;99.90;;;;;;5051749;28;20657;-75
2024/01/05 07:38:11;;;;;;;2.50;0.73;;;8.90;99.90;;;;;;5051801;28;20830;-76
2024/01/05 07:40:38;;;;;;;5.13;1.10;;;9.00;99.90;;;;;;5051991;28;20227;-76
2024/01/05 07:43:04;;;;;;;1.87;1.17;;;9.10;99.90;;;;;;5051922;28;20229;-75
2024/01/05 07:45:29;;;;;;;1.53;1.00;;;9.10;99.90;;;;;;5050347;28;20433;-75
2024/01/05 07:47:57;;;;;;;1.73;0.90;;;9.10;99.90;;;;;;5052007;28;20171;-77
2024/01/05 07:50:23;;;;;;;1.00;0.70;;;9.10;99.90;;;;;;5052449;28;20167;-77
2024/01/05 07:52:49;;;;;;;2.10;1.30;;;9.00;99.90;;;;;;5051587;28;20452;-77
2024/01/05 07:55:15;;;;;;;1.87;1.23;;;9.00;99.90;;;;;;5052800;28;20412;-77
2024/01/05 07:57:40;;;;;;;2.63;1.20;;;9.00;99.90;;;;;;5051020;28;20175;-75
2024/01/05 08:00:08;;;;;;;1.63;1.10;;;9.00;99.90;;;;;;5051387;28;20218;-75
2024/01/05 08:02:34;;;;;;;2.53;0.90;;;9.00;99.90;;;;;;5052262;28;20170;-77
2024/01/05 08:05:00;;;;;;;1.40;1.00;;;9.00;99.90;;;;;;5052050;28;20780;-70
2024/01/05 08:07:25;;;;;;;5.73;1.40;;;9.00;99.90;;;;;;5051412;28;20170;-71
2024/01/05 08:09:52;;;;;;;2.40;1.00;;;9.10;99.90;;;;;;5051367;28;20175;-71
2024/01/05 08:12:20;;;;;;;1.63;1.20;;;9.00;99.90;;;;;;5051135;28;20249;-72
2024/01/05 08:14:45;;;;;;;1.10;0.93;;;9.10;99.90;;;;;;5051115;28;20436;-71
2024/01/05 08:17:11;;;;;;;3.17;0.83;;;9.10;99.90;;;;;;5053065;28;20409;-70
2024/01/05 08:19:36;;;;;;;4.13;0.90;;;9.20;99.90;;;;;;5054939;28;20519;-72
2024/01/05 08:22:02;;;;;;;2.10;1.20;;;9.90;99.90;;;;;;5054993;28;20601;-72
2024/01/05 08:24:28;;;;;;;2.13;1.03;;;11.00;99.90;;;;;;5054634;28;20249;-71
2024/01/05 08:26:54;;;;;;;1.40;1.10;;;12.30;99.90;;;;;;5054954;28;20159;-69
2024/01/05 08:29:21;;;;;;;1.60;0.97;;;13.50;99.90;;;;;;5054941;28;20258;-71
2024/01/05 08:31:48;;;;;;;1.30;0.70;;;14.30;99.90;;;;;;5054716;28;20413;-71
2024/01/05 08:34:14;;;;;;;2.33;0.87;;;14.80;99.90;;;;;;5054441;28;20433;-71
2024/01/05 08:36:39;;;;;;;1.93;0.87;;;14.90;99.50;;;;;;5054615;28;20870;-70
2024/01/05 08:39:05;;;;;;;1.63;1.10;;;14.90;99.90;;;;;;5054732;28;20167;-70
2024/01/05 08:41:31;;;;;;;0.80;0.60;;;14.60;95.20;;;;;;5053254;28;20203;-70
2024/01/05 08:43:57;;;;;;;0.70;0.50;;;14.50;88.40;;;;;;5054276;28;20191;-72
2024/01/05 08:46:22;;;;;;;1.00;0.60;;;14.40;83.30;;;;;;5054464;28;20496;-71
2024/01/05 08:48:48;;;;;;;1.70;0.87;;;15.00;81.90;;;;;;5054494;28;20159;-71
2024/01/05 08:51:16;;;;;;;0.90;0.60;;;15.50;70.00;;;;;;5053212;28;20181;-70
2024/01/05 08:53:42;;;;;;;1.10;0.50;;;15.60;64.10;;;;;;5054079;28;20352;-70
2024/01/05 08:56:08;;;;;;;0.90;0.60;;;15.10;61.70;;;;;;5054198;28;20928;-71
2024/01/05 08:58:34;;;;;;;0.90;0.60;;;14.20;63.90;;;;;;5054352;28;20171;-70
2024/01/05 09:01:00;;;;;;;0.80;0.57;;;13.80;78.20;;;;;;5054254;28;20199;-70
2024/01/05 09:03:25;;;;;;;0.70;0.50;;;13.20;93.70;;;;;;5053933;28;20436;-71
2024/01/05 09:05:51;;;;;;;2.73;0.70;;;12.50;99.90;;;;;;5054079;28;20402;-70
2024/01/05 09:08:18;;;;;;;1.30;0.70;;;12.40;99.90;;;;;;5054192;28;20171;-69
2024/01/05 09:10:43;;;;;;;1.23;0.63;;;12.70;99.90;;;;;;5052716;28;20612;-70
2024/01/05 09:13:09;;;;;;;1.20;0.60;;;13.10;99.90;;;;;;5053757;28;20437;-70
2024/01/05 09:15:35;;;;;;;0.90;0.70;;;13.20;99.90;;;;;;5053895;28;20586;-70
2024/01/05 09:18:02;;;;;;;0.90;0.60;;;13.40;99.90;;;;;;5053990;28;20216;-70
2024/01/05 09:20:28;;;;;;;0.80;0.70;;;13.70;99.90;;;;;;5053732;28;20815;-71
2024/01/05 09:22:53;;;;;;;0.80;0.60;;;13.90;91.80;;;;;;5052319;28;20524;-70
2024/01/05 09:25:19;;;;;;;2.20;0.70;;;14.30;92.00;;;;;;5053844;28;20217;-71
2024/01/05 09:27:44;;;;;;;1.00;0.60;;;15.10;77.90;;;;;;5053005;28;20249;-71
2024/01/05 09:30:10;;;;;;;1.10;0.80;;;15.70;69.70;;;;;;5052429;28;20695;-72
2024/01/05 09:32:36;;;;;;;1.13;0.60;;;16.60;64.40;;;;;;5053422;28;20178;-72
2024/01/05 09:35:02;;;;;;;1.17;0.70;;;16.90;57.20;;;;;;5052174;28;20423;-71
2024/01/05 09:37:27;;;;;;;0.87;0.67;;;16.30;54.60;;;;;;5053767;28;20262;-72
2024/01/05 09:39:53;;;;;;;0.70;0.60;;;16.30;55.90;;;;;;5052908;28;20899;-71
2024/01/05 09:42:19;;;;;;;0.87;0.67;;;16.90;57.10;;;;;;5053417;28;20618;-72
2024/01/05 09:44:46;;;;;;;1.57;0.80;;;17.00;53.80;;;;;;5053285;28;20425;-72
2024/01/05 09:47:13;;;;;;;1.10;0.70;;;16.60;52.30;;;;;;5053329;28;20163;-71
2024/01/05 09:49:44;;;;;;;0.90;0.73;;;16.60;54.30;;;;;;5053204;28;20417;-72
2024/01/05 09:52:12;;;;;;;2.40;1.33;;;16.30;53.60;;;;;;5053255;28;20436;-71
2024/01/05 09:54:37;;;;;;;2.40;0.60;;;15.50;53.60;;;;;;5052945;28;20425;-71
2024/01/05 09:57:05;;;;;;;2.83;1.40;;;14.50;53.90;;;;;;5052107;28;20452;-73
2024/01/05 09:59:31;;;;;;;2.20;1.70;;;13.70;57.40;;;;;;5053181;28;20216;-73
2024/01/05 10:02:02;;;;;;;1.53;1.10;;;13.40;66.30;;;;;;5053145;28;20496;-71
2024/01/05 10:04:28;;;;;;;2.03;0.70;;;13.30;89.50;;;;;;5052465;28;20452;-72
2024/01/05 10:07:00;;;;;;;2.77;0.90;;;13.10;90.20;;;;;;5052892;28;20405;-73
2024/01/05 10:09:28;;;;;;;1.43;1.00;;;12.90;94.40;;;;;;5052865;28;20408;-72
2024/01/05 10:11:54;;;;;;;1.53;0.90;;;13.00;99.90;;;;;;5052927;28;20497;-72
2024/01/05 10:14:25;;;;;;;1.23;1.00;;;14.30;95.80;;;;;;5051425;28;20985;-72
2024/01/05 10:17:09;;;;;;;1.10;0.90;;;15.10;77.40;;;;;;5051642;28;20424;-72
2024/01/05 10:19:35;;;;;;;1.40;1.30;;;15.50;70.50;;;;;;5052749;28;20753;-72
2024/01/05 10:22:21;;;;;;;1.20;0.83;;;16.40;61.00;;;;;;5052538;28;20412;-72
2024/01/05 10:24:46;;;;;;;2.00;0.80;;;17.00;56.40;;;;;;5052218;28;20205;-71
2024/01/05 10:27:12;;;;;;;1.53;0.80;;;16.90;55.50;;;;;;5052600;28;20421;-73
2024/01/05 10:29:43;;;;;;;1.87;0.70;;;17.20;54.70;;;;;;5052565;28;20171;-70
2024/01/05 10:32:08;;;;;;;0.80;0.60;;;16.80;51.70;;;;;;5052753;28;20416;-70
2024/01/05 10:34:34;;;;;;;0.87;0.63;;;16.10;50.90;;;;;;5052242;28;20421;-71
2024/01/05 10:37:07;;;;;;;2.20;0.70;;;15.30;52.50;;;;;;5052390;28;20170;-71
2024/01/05 10:39:33;;;;;;;6.03;0.90;;;14.30;54.40;;;;;;5052130;28;20410;-71
2024/01/05 10:42:17;;;;;;;1.30;0.70;;;13.70;59.00;;;;;;5052493;28;20405;-71
2024/01/05 10:44:45;;;;;;;0.80;0.60;;;12.90;71.70;;;;;;5051912;28;20232;-70
2024/01/05 10:47:15;;;;;;;1.53;0.70;;;12.40;93.60;;;;;;5052265;28;20401;-71
2024/01/05 10:49:49;;;;;;;1.77;0.80;;;12.20;99.90;;;;;;5052242;28;20794;-70
2024/01/05 10:52:17;;;;;;;1.17;0.60;;;12.20;99.90;;;;;;5050824;28;20432;-71
2024/01/05 10:54:48;;;;;;;1.17;0.80;;;12.00;99.90;;;;;;5051796;28;20417;-70
2024/01/05 10:57:15;;;;;;;1.33;0.70;;;11.70;99.90;;;;;;5052072;28;20480;-71
2024/01/05 10:59:48;;;;;;;2.10;1.20;;;11.60;99.90;;;;;;5052095;28;20406;-72
2024/01/05 11:02:38;;;;;;;1.20;0.80;;;11.60;99.90;;;;;;5051956;28;20405;-71
2024/01/05 11:05:12;;;;;;;2.80;0.80;;;11.90;99.90;;;;;;5051971;28;20406;-71
2024/01/05 11:07:39;;;;;;;0.80;0.63;;;12.00;99.90;;;;;;5051948;28;20448;-71
2024/01/05 11:10:30;;;;;;;1.43;0.70;;;12.20;99.90;;;;;;5051941;28;20452;-72
2024/01/05 11:13:22;;;;;;;0.80;0.60;;;13.50;99.90;;;;;;5051573;28;20870;-71
2024/01/05 11:16:06;;;;;;;1.63;0.80;;;15.50;76.30;;;;;;5051784;28;20409;-72
2024/01/05 11:18:55;;;;;;;1.27;0.70;;;16.10;65.00;;;;;;5051781;28;20401;-71
2024/01/05 11:21:24;;;;;;;1.00;0.63;;;16.30;57.10;;;;;;5051716;28;20445;-72
2024/01/05 11:23:53;;;;;;;1.10;0.70;;;16.10;55.50;;;;;;5051452;28;20520;-71
2024/01/05 11:26:35;;;;;;;1.27;0.70;;;15.30;53.40;;;;;;5051700;28;20405;-71
2024/01/05 11:29:02;;;;;;;1.00;0.70;;;14.10;55.20;;;;;;5051750;28;20404;-71
2024/01/05 11:31:46;;;;;;;1.10;0.73;;;13.30;61.30;;;;;;5051422;28;20491;-72
2024/01/05 11:34:34;;;;;;;0.80;0.50;;;12.90;83.40;;;;;;5051387;28;20417;-72
2024/01/05 11:37:00;;;;;;;2.20;0.70;;;12.40;95.20;;;;;;5051532;28;20413;-71
2024/01/05 11:39:44;;;;;;;1.17;0.90;;;12.30;99.90;;;;;;5051618;28;20452;-71
2024/01/05 11:42:25;;;;;;;0.80;0.60;;;13.90;99.90;;;;;;5051581;28;20459;-71
2024/01/05 11:44:55;;;;;;;0.87;0.50;;;16.60;78.20;;;;;;5051498;28;20484;-71
2024/01/05 11:47:45;;;;;;;1.67;0.60;;;18.30;58.70;;;;;;5051613;28;20489;-72
2024/01/05 11:50:27;;;;;;;2.37;1.40;;;18.00;51.00;;;;;;5051500;28;20428;-69
2024/01/05 11:53:09;;;;;;;1.90;1.23;;;16.20;50.60;;;;;;5055083;28;20433;-70
2024/01/05 11:55:40;;;;;;;1.33;1.00;;;14.60;53.60;;;;;;5055320;28;20459;-70
2024/01/05 11:58:13;;;;;;;0.80;0.60;;;13.50;63.70;;;;;;5055570;28;20904;-71
2024/01/05 12:00:43;;;;;;;1.17;0.73;;;13.10;92.50;;;;;;5055429;28;20445;-71
2024/01/05 12:03:09;;;;;;;0.90;0.70;;;12.30;99.90;;;;;;5055120;28;20456;-71
2024/01/05 12:05:34;;;;;;;1.90;0.70;;;11.80;99.90;;;;;;5055268;28;20424;-71
2024/01/05 12:08:00;;;;;;;2.23;0.70;;;11.50;99.90;;;;;;5055231;28;20642;-71
2024/01/05 12:10:27;;;;;;;0.80;0.60;;;11.20;99.90;;;;;;5055311;28;20177;-71
2024/01/05 12:12:57;;;;;;;1.40;0.60;;;11.10;99.90;;;;;;5054878;28;20206;-71
2024/01/05 12:15:26;;;;;;;1.50;0.90;;;10.90;99.90;;;;;;5055020;28;20444;-71
2024/01/05 12:18:06;;;;;;;1.00;0.70;;;10.70;99.90;;;;;;5055051;28;20912;-70
2024/01/05 12:20:32;;;;;;;2.30;0.90;;;10.60;99.90;;;;;;5055005;28;20523;-71
2024/01/05 12:22:58;;;;;;;2.50;0.90;;;10.30;99.90;;;;;;5054708;28;20488;-71
2024/01/05 12:25:24;;;;;;;1.40;0.70;;;10.30;99.90;;;;;;5054862;28;20163;-71
2024/01/05 12:27:50;;;;;;;1.33;0.70;;;10.20;99.90;;;;;;5054879;28;20251;-71
2024/01/05 12:30:16;;;;;;;0.90;0.80;;;10.10;99.90;;;;;;5054843;28;20169;-71
2024/01/05 12:32:43;;;;;;;2.70;0.90;;;10.10;99.90;;;;;;5054573;28;20960;-71
2024/01/05 12:35:10;;;;;;;1.17;0.70;;;10.00;99.90;;;;;;5054699;28;20825;-70
2024/01/05 12:37:35;;;;;;;1.50;0.83;;;10.00;99.90;;;;;;5054746;28;20398;-70
2024/01/05 12:40:11;;;;;;;0.90;0.60;;;9.90;99.90;;;;;;5054578;28;20472;-70
2024/01/05 12:42:38;;;;;;;0.70;0.50;;;10.00;99.90;;;;;;5054410;28;20166;-71
2024/01/05 12:45:05;;;;;;;4.40;0.90;;;9.80;99.90;;;;;;5054190;28;20397;-70
2024/01/05 12:47:32;;;;;;;2.57;0.87;;;9.70;99.90;;;;;;5054553;28;20401;-70
2024/01/05 12:49:58;;;;;;;1.23;0.70;;;9.70;99.90;;;;;;5054480;28;20405;-72
2024/01/05 12:52:36;;;;;;;1.87;0.67;;;9.70;99.90;;;;;;5054017;28;20452;-71
2024/01/05 12:55:06;;;;;;;2.20;1.20;;;9.70;99.90;;;;;;5054285;28;20249;-71